Time;durP1;ratioP1;P1;durP2;ratioP2;P2;SDS_P1;SDS_P2;PMS_P1;PMS_P2;Temp;Humidity;BMP_temperature;BMP_pressure;BME280_temperature;BME280_humidity;BME280_pressure;Samples;Min_cycle;Max_cycle;Signal;HPM_P1;HPM_P2
2021/12/26 00:01:17;;;;;;;1.90;1.15;;;;;3.70;100696.00;;;;5145596;27;20240;-80
2021/12/26 00:03:46;;;;;;;2.75;1.15;;;;;3.70;100696.00;;;;5108754;28;20731;-80
2021/12/26 00:06:16;;;;;;;2.72;0.93;;;;;3.70;100696.00;;;;5109680;28;20197;-81
2021/12/26 00:08:44;;;;;;;1.92;0.88;;;;;3.70;100706.00;;;;5109380;28;20198;-80
2021/12/26 00:11:12;;;;;;;2.17;0.80;;;;;3.80;100699.00;;;;5109597;28;20202;-81
2021/12/26 00:13:40;;;;;;;1.83;0.80;;;;;3.80;100696.00;;;;5117131;27;20200;-81
2021/12/26 00:16:08;;;;;;;1.65;0.82;;;;;3.80;100685.00;;;;5129504;27;20201;-81
2021/12/26 00:18:36;;;;;;;1.77;0.80;;;;;3.80;100683.00;;;;5123725;27;20702;-81
2021/12/26 00:21:04;;;;;;;1.23;0.80;;;;;3.80;100685.00;;;;5109911;28;20229;-81
2021/12/26 00:23:32;;;;;;;3.17;0.90;;;;;3.80;100683.00;;;;5109100;28;20201;-81
2021/12/26 00:25:59;;;;;;;2.05;0.82;;;;;3.80;100676.00;;;;5108853;28;20201;-81
2021/12/26 00:28:27;;;;;;;1.00;0.70;;;;;3.90;100672.00;;;;5108691;28;20604;-81
2021/12/26 00:30:54;;;;;;;1.52;0.80;;;;;3.90;100680.00;;;;5108815;28;20608;-81
2021/12/26 00:33:21;;;;;;;1.23;0.85;;;;;3.90;100671.00;;;;5109162;28;20202;-81
2021/12/26 00:35:49;;;;;;;1.20;0.70;;;;;3.90;100682.00;;;;5116212;28;20221;-81
2021/12/26 00:38:18;;;;;;;1.15;0.73;;;;;3.90;100684.00;;;;5129158;27;20740;-81
2021/12/26 00:40:46;;;;;;;1.27;0.60;;;;;3.90;100675.00;;;;5128842;28;20220;-81
2021/12/26 00:43:13;;;;;;;2.35;1.27;;;;;3.90;100667.00;;;;5128992;28;20200;-80
2021/12/26 00:45:41;;;;;;;1.00;0.65;;;;;3.80;100673.00;;;;5128782;28;20200;-81
2021/12/26 00:48:09;;;;;;;2.50;0.98;;;;;3.80;100668.00;;;;5129079;28;20204;-81
2021/12/26 00:50:39;;;;;;;1.42;0.88;;;;;3.80;100657.00;;;;5129489;27;20197;-80
2021/12/26 00:53:07;;;;;;;2.58;0.75;;;;;3.80;100668.00;;;;5127105;27;20220;-80
2021/12/26 00:55:36;;;;;;;1.50;0.88;;;;;3.70;100663.00;;;;5108555;28;20229;-80
2021/12/26 00:58:03;;;;;;;1.33;0.80;;;;;3.80;100660.00;;;;5109288;28;20193;-80
2021/12/26 01:00:34;;;;;;;1.38;0.80;;;;;3.70;100670.00;;;;5108560;28;20209;-81
2021/12/26 01:03:04;;;;;;;1.70;0.95;;;;;3.70;100657.00;;;;5108792;28;20659;-81
2021/12/26 01:05:33;;;;;;;10.15;0.93;;;;;3.70;100668.00;;;;5108940;28;20194;-81
2021/12/26 01:08:03;;;;;;;1.65;0.93;;;;;3.70;100667.00;;;;5108993;28;20221;-81
2021/12/26 01:10:33;;;;;;;1.77;0.88;;;;;3.70;100672.00;;;;5108554;28;20676;-81
2021/12/26 01:13:13;;;;;;;2.03;1.00;;;;;3.60;100670.00;;;;5111044;28;20198;-81
2021/12/26 01:15:40;;;;;;;1.63;0.90;;;;;3.70;100669.00;;;;5128936;28;20611;-81
2021/12/26 01:18:08;;;;;;;2.25;1.05;;;;;3.60;100673.00;;;;5129134;28;20195;-81
2021/12/26 01:20:44;;;;;;;1.95;0.95;;;;;3.60;100679.00;;;;5128944;28;20215;-81
2021/12/26 01:23:15;;;;;;;2.75;0.82;;;;;3.60;100672.00;;;;5128817;28;20236;-81
2021/12/26 01:25:42;;;;;;;1.10;0.65;;;;;3.60;100671.00;;;;5109574;28;20280;-81
2021/12/26 01:28:11;;;;;;;1.52;0.90;;;;;3.60;100672.00;;;;5108730;28;20619;-81
2021/12/26 01:30:41;;;;;;;2.45;1.23;;;;;3.60;100672.00;;;;5108233;28;20202;-81
2021/12/26 01:33:10;;;;;;;1.85;1.00;;;;;3.60;100674.00;;;;5108604;28;20205;-79
2021/12/26 01:35:38;;;;;;;1.58;0.90;;;;;3.70;100677.00;;;;5108317;28;20209;-82
2021/12/26 01:38:10;;;;;;;1.77;0.90;;;;;3.70;100674.00;;;;5108284;28;20601;-79
2021/12/26 01:40:40;;;;;;;1.83;0.77;;;;;3.70;100672.00;;;;5108234;28;20205;-81
2021/12/26 01:43:07;;;;;;;2.22;0.80;;;;;3.70;100672.00;;;;5109370;28;20325;-82
2021/12/26 01:45:35;;;;;;;1.67;0.88;;;;;3.60;100676.00;;;;5109702;28;20197;-81
2021/12/26 01:48:05;;;;;;;1.50;0.80;;;;;3.60;100671.00;;;;5111811;28;20201;-82
2021/12/26 01:50:32;;;;;;;1.67;0.80;;;;;3.70;100671.00;;;;5112357;28;20214;-80
2021/12/26 01:53:00;;;;;;;1.48;0.60;;;;;3.70;100662.00;;;;5112195;28;20204;-80
2021/12/26 01:55:38;;;;;;;2.10;1.13;;;;;3.70;100673.00;;;;5111388;28;20224;-80
2021/12/26 01:58:08;;;;;;;1.55;0.90;;;;;3.70;100662.00;;;;5111970;28;20569;-80
2021/12/26 02:00:37;;;;;;;2.15;1.00;;;;;3.70;100665.00;;;;5117460;27;20666;-81
2021/12/26 02:03:04;;;;;;;1.55;0.68;;;;;3.80;100661.00;;;;5133883;27;20293;-81
2021/12/26 02:05:32;;;;;;;2.08;0.90;;;;;3.80;100654.00;;;;5152460;27;20677;-80
2021/12/26 02:07:59;;;;;;;1.40;0.85;;;;;3.80;100657.00;;;;5153794;27;20204;-81
2021/12/26 02:10:26;;;;;;;2.55;0.85;;;;;3.80;100657.00;;;;5153158;27;20203;-81
2021/12/26 02:12:54;;;;;;;1.95;0.88;;;;;3.70;100654.00;;;;5151495;27;20200;-81
2021/12/26 02:15:21;;;;;;;2.45;1.00;;;;;3.70;100659.00;;;;5132245;27;20200;-81
2021/12/26 02:17:50;;;;;;;1.20;0.80;;;;;3.70;100653.00;;;;5124808;27;20213;-81
2021/12/26 02:20:33;;;;;;;1.75;0.77;;;;;3.60;100647.00;;;;5111598;28;20205;-81
2021/12/26 02:23:06;;;;;;;2.63;1.00;;;;;3.70;100648.00;;;;5111419;28;20228;-81
2021/12/26 02:28:17;;;;;;;2.20;0.98;;;;;3.70;100640.00;;;;5110048;28;20200;-81
2021/12/26 02:30:45;;;;;;;1.27;0.85;;;;;3.70;100647.00;;;;5110770;28;20229;-81
2021/12/26 02:33:12;;;;;;;2.00;1.00;;;;;3.60;100644.00;;;;5110993;28;20225;-79
2021/12/26 02:35:42;;;;;;;2.40;0.98;;;;;3.60;100640.00;;;;5125581;27;20295;-81
2021/12/26 02:38:11;;;;;;;1.40;0.73;;;;;3.60;100640.00;;;;5131441;27;20255;-81
2021/12/26 02:40:39;;;;;;;1.77;0.88;;;;;3.60;100645.00;;;;5131605;27;20212;-81
2021/12/26 02:43:07;;;;;;;1.60;0.82;;;;;3.60;100638.00;;;;5131712;27;20231;-81
2021/12/26 02:45:35;;;;;;;1.73;0.80;;;;;3.60;100643.00;;;;5130367;27;20200;-81
2021/12/26 02:48:03;;;;;;;3.13;0.80;;;;;3.60;100637.00;;;;5131655;27;20207;-81
2021/12/26 02:50:32;;;;;;;1.35;0.80;;;;;3.60;100643.00;;;;5131308;27;20212;-81
2021/12/26 02:53:03;;;;;;;2.15;0.90;;;;;3.50;100643.00;;;;5130790;27;20205;-81
2021/12/26 02:55:31;;;;;;;1.23;0.75;;;;;3.50;100633.00;;;;5131349;27;20224;-81
2021/12/26 02:58:00;;;;;;;1.42;0.77;;;;;3.50;100624.00;;;;5131547;27;20197;-81
2021/12/26 03:00:31;;;;;;;1.15;0.65;;;;;3.50;100626.00;;;;5130520;27;20201;-81
2021/12/26 03:03:02;;;;;;;1.48;0.70;;;;;3.50;100629.00;;;;5131003;27;20706;-81
2021/12/26 03:05:32;;;;;;;1.42;1.00;;;;;3.50;100630.00;;;;5131231;27;20205;-81
2021/12/26 03:08:01;;;;;;;1.67;0.90;;;;;3.50;100626.00;;;;5130054;27;20631;-81
2021/12/26 03:10:28;;;;;;;1.13;0.65;;;;;3.50;100630.00;;;;5110383;28;20588;-81
2021/12/26 03:12:58;;;;;;;2.67;1.25;;;;;3.50;100630.00;;;;5140096;27;20199;-81
2021/12/26 03:15:26;;;;;;;2.90;0.95;;;;;3.50;100623.00;;;;5110334;28;20190;-81
2021/12/26 03:17:57;;;;;;;2.22;0.80;;;;;3.50;100626.00;;;;5109752;28;20190;-81
2021/12/26 03:20:27;;;;;;;2.15;1.08;;;;;3.50;100627.00;;;;5110069;28;20193;-81
2021/12/26 03:22:55;;;;;;;1.60;0.90;;;;;3.50;100629.00;;;;5109801;28;20225;-81
2021/12/26 03:25:25;;;;;;;1.52;0.90;;;;;3.60;100632.00;;;;5113690;27;20208;-81
2021/12/26 03:27:53;;;;;;;1.23;0.95;;;;;3.60;100622.00;;;;5130396;27;20205;-81
2021/12/26 03:30:23;;;;;;;1.52;0.80;;;;;3.60;100617.00;;;;5130903;27;20201;-81
2021/12/26 03:32:50;;;;;;;2.60;1.10;;;;;3.60;100619.00;;;;5130655;27;20633;-81
2021/12/26 03:35:19;;;;;;;1.38;0.82;;;;;3.60;100602.00;;;;5130677;27;20196;-81
2021/12/26 03:37:46;;;;;;;1.00;0.60;;;;;3.60;100605.00;;;;5130019;27;20224;-81
2021/12/26 03:40:14;;;;;;;2.00;0.85;;;;;3.60;100605.00;;;;5130630;27;20201;-80
2021/12/26 03:42:43;;;;;;;1.50;0.75;;;;;3.60;100597.00;;;;5128893;27;20224;-81
2021/12/26 03:45:11;;;;;;;1.50;0.80;;;;;3.60;100606.00;;;;5130568;27;20204;-82
2021/12/26 03:47:39;;;;;;;2.38;0.60;;;;;3.60;100600.00;;;;5127278;27;20873;-81
2021/12/26 03:50:09;;;;;;;1.33;0.68;;;;;3.60;100607.00;;;;5110027;28;20259;-81
2021/12/26 03:52:36;;;;;;;1.95;1.10;;;;;3.60;100593.00;;;;5109065;28;20213;-81
2021/12/26 03:55:04;;;;;;;2.00;1.00;;;;;3.60;100591.00;;;;5109025;28;20213;-81
2021/12/26 03:57:31;;;;;;;1.73;1.10;;;;;3.60;100600.00;;;;5109189;28;20200;-82
2021/12/26 04:00:00;;;;;;;1.60;0.80;;;;;3.60;100594.00;;;;5109606;27;20252;-81
2021/12/26 04:02:27;;;;;;;1.20;0.73;;;;;3.60;100597.00;;;;5108837;28;20228;-80
2021/12/26 04:04:54;;;;;;;2.13;0.90;;;;;3.60;100589.00;;;;5108280;28;20758;-81
2021/12/26 04:07:21;;;;;;;1.25;0.88;;;;;3.60;100599.00;;;;5108957;28;20200;-81
2021/12/26 04:09:49;;;;;;;1.23;0.82;;;;;3.50;100595.00;;;;5108785;28;20594;-81
2021/12/26 04:12:16;;;;;;;1.98;1.10;;;;;3.50;100589.00;;;;5109332;28;20209;-80
2021/12/26 04:14:43;;;;;;;1.85;1.02;;;;;3.60;100587.00;;;;5121863;27;20654;-81
2021/12/26 04:17:12;;;;;;;1.38;0.80;;;;;3.60;100582.00;;;;5118889;27;20209;-81
2021/12/26 04:19:39;;;;;;;1.48;0.90;;;;;3.50;100568.00;;;;5108284;28;20197;-80
2021/12/26 04:22:08;;;;;;;1.95;1.00;;;;;3.50;100578.00;;;;5109144;28;20221;-81
2021/12/26 04:24:35;;;;;;;1.95;0.85;;;;;3.50;100579.00;;;;5139465;27;20200;-80
2021/12/26 04:27:03;;;;;;;2.17;0.90;;;;;3.50;100580.00;;;;5128866;27;20236;-81
2021/12/26 04:29:30;;;;;;;1.60;1.13;;;;;3.50;100582.00;;;;5129192;27;20243;-81
2021/12/26 04:31:57;;;;;;;0.95;0.50;;;;;3.50;100576.00;;;;5129128;27;20206;-81
2021/12/26 04:34:26;;;;;;;1.58;0.98;;;;;3.50;100574.00;;;;5116396;27;20208;-80
2021/12/26 04:36:53;;;;;;;1.13;0.73;;;;;3.50;100580.00;;;;5108166;28;20214;-81
2021/12/26 04:39:20;;;;;;;1.55;0.80;;;;;3.50;100578.00;;;;5107809;28;20197;-81
2021/12/26 04:41:47;;;;;;;2.47;1.00;;;;;3.50;100577.00;;;;5108221;28;20208;-81
2021/12/26 04:44:15;;;;;;;2.63;0.90;;;;;3.50;100572.00;;;;5108510;28;20296;-80
2021/12/26 04:46:42;;;;;;;1.67;0.85;;;;;3.50;100571.00;;;;5107935;28;20201;-81
2021/12/26 04:49:09;;;;;;;1.90;0.90;;;;;3.50;100568.00;;;;5107212;28;20758;-81
2021/12/26 04:51:38;;;;;;;1.80;0.75;;;;;3.50;100563.00;;;;5108760;28;20197;-80
2021/12/26 04:54:05;;;;;;;1.17;0.70;;;;;3.50;100577.00;;;;5108295;28;20586;-81
2021/12/26 04:56:32;;;;;;;1.15;0.70;;;;;3.50;100567.00;;;;5107968;28;20231;-80
2021/12/26 04:58:59;;;;;;;3.45;0.82;;;;;3.50;100568.00;;;;5108865;28;20189;-81
2021/12/26 05:01:27;;;;;;;1.52;0.80;;;;;3.50;100569.00;;;;5107951;28;20197;-81
2021/12/26 05:03:54;;;;;;;1.65;1.10;;;;;3.50;100571.00;;;;5108694;28;20229;-81
2021/12/26 05:06:21;;;;;;;1.38;0.90;;;;;3.50;100570.00;;;;5108940;28;20201;-81
2021/12/26 05:08:50;;;;;;;1.83;0.80;;;;;3.50;100565.00;;;;5124472;28;20209;-81
2021/12/26 05:11:17;;;;;;;1.38;0.80;;;;;3.50;100566.00;;;;5129059;28;20201;-80
2021/12/26 05:13:45;;;;;;;2.17;0.85;;;;;3.50;100558.00;;;;5128516;28;20193;-81
2021/12/26 05:16:12;;;;;;;1.50;0.93;;;;;3.50;100561.00;;;;5129517;28;20196;-80
2021/12/26 05:18:40;;;;;;;2.17;0.98;;;;;3.50;100556.00;;;;5128459;27;20205;-81
2021/12/26 05:21:07;;;;;;;1.33;0.80;;;;;3.50;100558.00;;;;5132203;27;20211;-80
2021/12/26 05:23:34;;;;;;;1.35;0.70;;;;;3.50;100546.00;;;;5133041;27;20217;-81
2021/12/26 05:26:03;;;;;;;1.27;0.60;;;;;3.50;100552.00;;;;5115216;27;20258;-80
2021/12/26 05:28:30;;;;;;;1.92;0.77;;;;;3.50;100553.00;;;;5112670;28;20208;-80
2021/12/26 05:30:58;;;;;;;3.10;0.90;;;;;3.50;100551.00;;;;5112581;28;20193;-81
2021/12/26 05:33:25;;;;;;;1.70;0.90;;;;;3.50;100539.00;;;;5118149;27;20195;-80
2021/12/26 05:35:52;;;;;;;1.40;0.77;;;;;3.60;100543.00;;;;5144366;27;20636;-80
2021/12/26 05:38:19;;;;;;;1.35;0.88;;;;;3.60;100548.00;;;;5132962;27;20221;-81
2021/12/26 05:40:47;;;;;;;2.17;1.02;;;;;3.60;100536.00;;;;5132616;27;20219;-81
2021/12/26 05:43:15;;;;;;;1.30;0.65;;;;;3.50;100538.00;;;;5113120;27;20236;-80
2021/12/26 05:45:42;;;;;;;1.40;1.02;;;;;3.50;100537.00;;;;5111909;28;20205;-81
2021/12/26 05:48:10;;;;;;;1.55;0.90;;;;;3.50;100533.00;;;;5112489;28;20606;-81
2021/12/26 05:50:37;;;;;;;2.78;0.88;;;;;3.50;100538.00;;;;5111654;28;20201;-81
2021/12/26 05:53:05;;;;;;;2.22;0.75;;;;;3.50;100531.00;;;;5111988;28;20212;-81
2021/12/26 05:55:32;;;;;;;1.83;0.80;;;;;3.50;100523.00;;;;5110885;28;20231;-81
2021/12/26 05:58:00;;;;;;;1.35;1.05;;;;;3.50;100527.00;;;;5111649;27;20204;-81
2021/12/26 06:00:28;;;;;;;1.73;0.90;;;;;3.50;100527.00;;;;5110986;28;20213;-81
2021/12/26 06:02:55;;;;;;;1.70;0.80;;;;;3.50;100523.00;;;;5111103;28;20730;-80
2021/12/26 06:05:23;;;;;;;1.58;1.23;;;;;3.50;100524.00;;;;5111391;28;20201;-81
2021/12/26 06:07:50;;;;;;;1.42;0.70;;;;;3.50;100530.00;;;;5110937;28;20780;-81
2021/12/26 06:10:18;;;;;;;1.73;0.85;;;;;3.60;100530.00;;;;5111476;28;20189;-81
2021/12/26 06:12:45;;;;;;;1.23;0.60;;;;;3.60;100524.00;;;;5111087;28;20976;-81
2021/12/26 06:15:13;;;;;;;1.83;0.88;;;;;3.60;100530.00;;;;5125576;27;20208;-81
2021/12/26 06:17:42;;;;;;;1.48;0.90;;;;;3.50;100527.00;;;;5110190;28;20296;-81
2021/12/26 06:20:14;;;;;;;1.85;0.90;;;;;3.60;100536.00;;;;5111029;28;20205;-81
2021/12/26 06:22:42;;;;;;;3.72;1.00;;;;;3.60;100532.00;;;;5110621;28;20223;-81
2021/12/26 06:25:10;;;;;;;1.25;0.70;;;;;3.60;100536.00;;;;5111207;28;20232;-81
2021/12/26 06:27:37;;;;;;;1.52;0.73;;;;;3.60;100531.00;;;;5110264;28;20205;-81
2021/12/26 06:30:06;;;;;;;2.17;1.13;;;;;3.60;100534.00;;;;5110781;28;20209;-81
2021/12/26 06:32:34;;;;;;;2.25;0.70;;;;;3.60;100527.00;;;;5110860;28;20607;-80
2021/12/26 06:35:03;;;;;;;2.50;1.17;;;;;3.50;100528.00;;;;5110695;28;20209;-81
2021/12/26 06:37:30;;;;;;;1.15;0.80;;;;;3.60;100517.00;;;;5110169;28;20276;-81
2021/12/26 06:40:00;;;;;;;1.70;0.95;;;;;3.60;100521.00;;;;5110463;28;20193;-81
2021/12/26 06:42:28;;;;;;;2.45;0.90;;;;;3.60;100521.00;;;;5110575;28;20720;-81
2021/12/26 06:44:56;;;;;;;2.08;0.63;;;;;3.60;100518.00;;;;5131722;27;20624;-81
2021/12/26 06:47:24;;;;;;;0.70;0.57;;;;;3.60;100514.00;;;;5111752;27;20575;-80
2021/12/26 06:49:51;;;;;;;1.50;0.85;;;;;3.60;100520.00;;;;5111408;27;20213;-81
2021/12/26 06:52:20;;;;;;;1.75;0.70;;;;;3.60;100518.00;;;;5110796;28;20250;-81
2021/12/26 06:54:47;;;;;;;2.47;0.60;;;;;3.60;100517.00;;;;5109855;28;20210;-81
2021/12/26 06:57:15;;;;;;;1.42;0.73;;;;;3.60;100517.00;;;;5110249;28;20663;-82
2021/12/26 06:59:42;;;;;;;1.52;0.90;;;;;3.60;100520.00;;;;5110244;28;20193;-82
2021/12/26 07:02:10;;;;;;;1.77;0.90;;;;;3.60;100518.00;;;;5110736;28;20223;-82
2021/12/26 07:04:37;;;;;;;1.50;0.90;;;;;3.60;100521.00;;;;5110448;28;20225;-82
2021/12/26 07:07:05;;;;;;;1.33;0.77;;;;;3.60;100524.00;;;;5120202;27;20196;-82
2021/12/26 07:09:33;;;;;;;2.05;1.15;;;;;3.60;100526.00;;;;5131353;27;20201;-81
2021/12/26 07:12:01;;;;;;;1.85;0.93;;;;;3.60;100529.00;;;;5131112;27;20658;-82
2021/12/26 07:14:28;;;;;;;2.50;0.85;;;;;3.60;100526.00;;;;5130165;27;20201;-82
2021/12/26 07:16:55;;;;;;;1.60;1.00;;;;;3.60;100531.00;;;;5131127;27;20204;-82
2021/12/26 07:19:22;;;;;;;1.60;0.80;;;;;3.70;100533.00;;;;5130991;27;20569;-82
2021/12/26 07:21:49;;;;;;;2.35;0.95;;;;;3.70;100529.00;;;;5130906;27;20197;-82
2021/12/26 07:24:17;;;;;;;1.73;0.85;;;;;3.70;100532.00;;;;5119489;27;20229;-82
2021/12/26 07:26:45;;;;;;;1.25;0.90;;;;;3.70;100526.00;;;;5109470;28;20465;-82
2021/12/26 07:29:13;;;;;;;0.88;0.50;;;;;3.70;100517.00;;;;5110500;28;20193;-82
2021/12/26 07:31:40;;;;;;;0.95;0.65;;;;;3.70;100526.00;;;;5109619;28;20205;-82
2021/12/26 07:34:07;;;;;;;1.30;0.90;;;;;3.70;100516.00;;;;5110247;28;20204;-82
2021/12/26 07:36:34;;;;;;;1.98;1.02;;;;;3.70;100519.00;;;;5109758;28;20209;-82
2021/12/26 07:39:02;;;;;;;3.90;1.20;;;;;3.70;100521.00;;;;5109728;28;20229;-82
2021/12/26 07:41:29;;;;;;;1.63;0.85;;;;;3.70;100518.00;;;;5110559;27;20686;-81
2021/12/26 07:43:58;;;;;;;1.55;1.10;;;;;3.70;100501.00;;;;5109134;28;20585;-82
2021/12/26 07:46:25;;;;;;;1.27;0.90;;;;;3.70;100512.00;;;;5117126;27;20204;-82
2021/12/26 07:48:52;;;;;;;1.40;1.00;;;;;3.70;100506.00;;;;5131049;27;20223;-82
2021/12/26 07:51:20;;;;;;;1.98;0.90;;;;;3.70;100513.00;;;;5130527;27;20226;-82
2021/12/26 07:53:49;;;;;;;1.30;0.90;;;;;3.70;100503.00;;;;5129614;27;20209;-82
2021/12/26 07:56:17;;;;;;;2.00;1.20;;;;;3.80;100497.00;;;;5143691;27;20252;-82
2021/12/26 07:58:44;;;;;;;2.15;1.33;;;;;3.80;100506.00;;;;5113661;27;20583;-82
2021/12/26 08:01:13;;;;;;;2.00;0.80;;;;;3.80;100514.00;;;;5109046;28;20197;-82
2021/12/26 08:03:40;;;;;;;1.50;0.93;;;;;3.80;100509.00;;;;5108670;28;20225;-81
2021/12/26 08:06:08;;;;;;;1.40;0.90;;;;;3.80;100514.00;;;;5109478;28;20688;-82
2021/12/26 08:08:36;;;;;;;2.00;1.05;;;;;3.90;100506.00;;;;5107885;28;20205;-82
2021/12/26 08:11:04;;;;;;;2.08;1.08;;;;;3.90;100511.00;;;;5109228;28;20200;-82
2021/12/26 08:13:31;;;;;;;1.10;0.90;;;;;3.90;100513.00;;;;5109489;27;20206;-81
2021/12/26 08:15:58;;;;;;;2.40;1.35;;;;;3.90;100512.00;;;;5111739;27;20722;-81
2021/12/26 08:18:27;;;;;;;1.17;0.65;;;;;3.90;100518.00;;;;5108469;28;20201;-81
2021/12/26 08:20:54;;;;;;;1.50;1.08;;;;;4.00;100519.00;;;;5108726;28;20217;-81
2021/12/26 08:23:22;;;;;;;1.35;0.95;;;;;4.00;100521.00;;;;5108444;28;20229;-81
2021/12/26 08:25:49;;;;;;;1.38;0.90;;;;;4.00;100527.00;;;;5109352;28;20193;-81
2021/12/26 08:28:16;;;;;;;1.65;0.95;;;;;4.10;100523.00;;;;5109096;28;20204;-81
2021/12/26 08:30:44;;;;;;;1.77;1.08;;;;;4.00;100522.00;;;;5109010;28;20205;-81
2021/12/26 08:33:11;;;;;;;1.75;0.82;;;;;4.10;100509.00;;;;5109209;28;20201;-81
2021/12/26 08:35:42;;;;;;;1.27;0.90;;;;;4.10;100512.00;;;;5108884;28;20201;-81
2021/12/26 08:38:10;;;;;;;3.15;0.80;;;;;4.20;100513.00;;;;5108586;28;20232;-81
2021/12/26 08:40:38;;;;;;;2.17;0.80;;;;;4.20;100522.00;;;;5109192;28;20204;-81
2021/12/26 08:43:05;;;;;;;1.70;0.90;;;;;4.20;100520.00;;;;5109461;28;20205;-81
2021/12/26 08:45:32;;;;;;;2.08;1.08;;;;;4.20;100526.00;;;;5108743;28;20286;-81
2021/12/26 08:48:00;;;;;;;1.50;0.98;;;;;4.30;100528.00;;;;5109183;28;20205;-81
2021/12/26 08:50:28;;;;;;;1.25;0.90;;;;;4.30;100532.00;;;;5129721;28;20204;-81
2021/12/26 08:52:57;;;;;;;1.65;0.90;;;;;4.30;100521.00;;;;5129551;28;20204;-81
2021/12/26 08:55:25;;;;;;;2.33;1.10;;;;;4.40;100526.00;;;;5133189;27;20220;-81
2021/12/26 08:57:53;;;;;;;1.75;1.17;;;;;4.40;100527.00;;;;5133785;27;20209;-81
2021/12/26 09:00:22;;;;;;;1.20;0.80;;;;;4.50;100512.00;;;;5134732;27;20204;-81
2021/12/26 09:02:49;;;;;;;1.75;0.90;;;;;4.50;100524.00;;;;5144741;27;20193;-81
2021/12/26 09:05:17;;;;;;;2.22;1.00;;;;;4.50;100528.00;;;;5131092;27;20235;-81
2021/12/26 09:07:44;;;;;;;2.80;1.45;;;;;4.60;100532.00;;;;5112689;28;20451;-81
2021/12/26 09:10:14;;;;;;;1.52;0.85;;;;;4.60;100527.00;;;;5113013;28;20208;-81
2021/12/26 09:12:42;;;;;;;2.15;0.93;;;;;4.60;100534.00;;;;5112702;28;20201;-80
2021/12/26 09:15:11;;;;;;;1.60;1.15;;;;;4.70;100523.00;;;;5126139;27;20207;-81
2021/12/26 09:17:39;;;;;;;2.67;1.10;;;;;4.70;100526.00;;;;5133214;27;20200;-80
2021/12/26 09:20:08;;;;;;;1.77;1.20;;;;;4.70;100527.00;;;;5133348;27;20212;-81
2021/12/26 09:22:36;;;;;;;2.28;1.10;;;;;4.80;100525.00;;;;5127808;27;20202;-81
2021/12/26 09:25:04;;;;;;;1.90;1.10;;;;;4.80;100535.00;;;;5112726;28;20278;-81
2021/12/26 09:27:32;;;;;;;2.22;1.15;;;;;4.80;100528.00;;;;5112658;28;20285;-81
2021/12/26 09:29:59;;;;;;;3.60;1.92;;;;;4.90;100538.00;;;;5111802;28;20202;-80
2021/12/26 09:32:26;;;;;;;2.25;1.50;;;;;4.90;100528.00;;;;5112901;28;20201;-81
2021/12/26 09:34:54;;;;;;;2.80;1.75;;;;;4.90;100527.00;;;;5112813;28;20213;-81
2021/12/26 09:37:21;;;;;;;3.70;2.13;;;;;5.00;100530.00;;;;5112433;28;20225;-80
2021/12/26 09:39:48;;;;;;;2.45;1.20;;;;;5.00;100534.00;;;;5112937;27;20202;-80
2021/12/26 09:42:16;;;;;;;1.85;1.10;;;;;5.10;100538.00;;;;5112435;28;20202;-80
2021/12/26 09:44:44;;;;;;;1.83;1.02;;;;;5.10;100531.00;;;;5111768;28;20229;-81
2021/12/26 09:47:12;;;;;;;1.90;1.40;;;;;5.20;100521.00;;;;5111770;28;20680;-80
2021/12/26 09:49:39;;;;;;;2.05;1.27;;;;;5.20;100521.00;;;;5112278;28;20209;-81
2021/12/26 09:52:07;;;;;;;3.95;1.80;;;;;5.20;100518.00;;;;5112139;28;20205;-80
2021/12/26 09:54:35;;;;;;;1.98;1.27;;;;;5.30;100518.00;;;;5111999;28;20194;-81
2021/12/26 09:57:03;;;;;;;2.03;1.48;;;;;5.30;100511.00;;;;5112914;27;20225;-81
2021/12/26 09:59:31;;;;;;;2.15;1.50;;;;;5.40;100509.00;;;;5111938;28;20190;-81
2021/12/26 10:02:08;;;;;;;1.92;1.20;;;;;5.40;100505.00;;;;5111104;28;20230;-81
2021/12/26 10:04:36;;;;;;;1.33;0.93;;;;;5.50;100512.00;;;;5111822;28;20225;-81
2021/12/26 10:07:05;;;;;;;4.13;1.77;;;;;5.50;100511.00;;;;5111097;28;20655;-80
2021/12/26 10:09:36;;;;;;;3.03;1.90;;;;;5.60;100502.00;;;;5111773;28;20198;-80
2021/12/26 10:12:06;;;;;;;2.75;1.50;;;;;5.60;100500.00;;;;5117864;27;20196;-81
2021/12/26 10:14:37;;;;;;;1.92;1.50;;;;;5.60;100499.00;;;;5122601;27;20227;-81
2021/12/26 10:17:08;;;;;;;1.63;1.23;;;;;5.70;100510.00;;;;5132290;27;20547;-81
2021/12/26 10:19:37;;;;;;;3.05;1.50;;;;;5.80;100501.00;;;;5131829;27;20193;-81
2021/12/26 10:22:05;;;;;;;1.98;1.40;;;;;5.80;100497.00;;;;5132055;27;20613;-81
2021/12/26 10:24:34;;;;;;;2.33;1.30;;;;;5.90;100489.00;;;;5131465;27;20220;-81
2021/12/26 10:27:04;;;;;;;2.20;1.83;;;;;5.90;100491.00;;;;5132498;27;20200;-81
2021/12/26 10:29:33;;;;;;;2.05;1.40;;;;;6.00;100479.00;;;;5131611;27;20232;-81
2021/12/26 10:32:13;;;;;;;2.40;1.83;;;;;6.00;100474.00;;;;5114181;27;20197;-80
2021/12/26 10:34:43;;;;;;;2.65;1.48;;;;;6.10;100476.00;;;;5110816;28;20204;-81
2021/12/26 10:37:13;;;;;;;3.97;1.80;;;;;6.20;100479.00;;;;5111039;28;20221;-81
2021/12/26 10:39:43;;;;;;;2.42;1.75;;;;;6.20;100472.00;;;;5110680;28;20557;-81
2021/12/26 10:42:16;;;;;;;3.25;1.65;;;;;6.30;100467.00;;;;5111276;28;20679;-81
2021/12/26 10:44:45;;;;;;;3.83;1.90;;;;;6.40;100463.00;;;;5110703;28;20361;-81
2021/12/26 10:47:17;;;;;;;2.13;1.63;;;;;6.40;100465.00;;;;5113032;27;20665;-81
2021/12/26 10:49:48;;;;;;;2.72;1.75;;;;;6.50;100459.00;;;;5131105;27;20224;-81
2021/12/26 10:52:24;;;;;;;3.67;2.33;;;;;6.50;100462.00;;;;5131507;27;20510;-81
2021/12/26 10:54:54;;;;;;;2.75;1.88;;;;;6.70;100461.00;;;;5131530;27;20204;-81
2021/12/26 10:57:25;;;;;;;4.15;2.35;;;;;6.70;100458.00;;;;5131716;27;20647;-81
2021/12/26 11:00:09;;;;;;;4.32;2.40;;;;;6.80;100458.00;;;;5130850;27;20193;-81
2021/12/26 11:02:40;;;;;;;3.67;2.40;;;;;6.90;100453.00;;;;5131642;27;20222;-81
2021/12/26 11:05:09;;;;;;;3.50;2.22;;;;;6.90;100445.00;;;;5130579;27;20239;-81
2021/12/26 11:07:52;;;;;;;4.60;2.60;;;;;7.00;100449.00;;;;5130769;27;20208;-82
2021/12/26 11:10:23;;;;;;;3.75;2.22;;;;;7.10;100441.00;;;;5131422;27;20693;-82
2021/12/26 11:12:52;;;;;;;2.63;1.92;;;;;7.20;100444.00;;;;5131509;27;20201;-82
2021/12/26 11:15:22;;;;;;;2.78;1.73;;;;;7.30;100432.00;;;;5130918;27;20197;-82
2021/12/26 11:17:54;;;;;;;3.25;1.92;;;;;7.30;100442.00;;;;5130285;27;20208;-82
2021/12/26 11:20:32;;;;;;;2.95;2.00;;;;;7.40;100431.00;;;;5130761;27;20201;-81
2021/12/26 11:23:09;;;;;;;2.80;1.70;;;;;7.50;100427.00;;;;5127332;27;20200;-82
2021/12/26 11:25:38;;;;;;;2.95;1.60;;;;;7.60;100426.00;;;;5123022;27;20643;-82
2021/12/26 11:28:05;;;;;;;4.72;1.90;;;;;7.70;100420.00;;;;5110973;28;20201;-81
2021/12/26 11:30:33;;;;;;;2.67;1.92;;;;;7.80;100429.00;;;;5110124;28;20555;-81
2021/12/26 11:33:02;;;;;;;2.78;1.80;;;;;7.80;100426.00;;;;5110102;28;20565;-82
2021/12/26 11:35:31;;;;;;;3.00;1.92;;;;;7.90;100425.00;;;;5109585;28;20194;-82
2021/12/26 11:38:01;;;;;;;3.65;2.13;;;;;8.00;100418.00;;;;5110122;28;20225;-82
2021/12/26 11:40:28;;;;;;;2.60;1.88;;;;;8.10;100427.00;;;;5110300;28;20202;-82
2021/12/26 11:43:39;;;;;;;3.55;2.10;;;;;8.10;100423.00;;;;5109876;28;20683;-82
2021/12/26 11:46:16;;;;;;;4.15;2.50;;;;;8.20;100412.00;;;;5110171;28;20228;-82
2021/12/26 11:49:07;;;;;;;3.47;2.35;;;;;8.30;100416.00;;;;5109291;28;20279;-82
2021/12/26 11:52:01;;;;;;;11.20;2.72;;;;;8.40;100415.00;;;;5110041;28;20198;-82
2021/12/26 11:55:03;;;;;;;4.03;2.50;;;;;8.40;100412.00;;;;5109799;28;20590;-82
2021/12/26 11:57:52;;;;;;;2.95;2.13;;;;;8.50;100397.00;;;;5109473;28;20206;-81
2021/12/26 12:00:25;;;;;;;3.60;2.10;;;;;8.70;100413.00;;;;5110142;28;20200;-82
2021/12/26 12:02:54;;;;;;;2.58;1.83;;;;;8.70;100418.00;;;;5109980;28;20201;-82
2021/12/26 12:05:25;;;;;;;3.50;2.17;;;;;8.80;100417.00;;;;5109613;28;20241;-82
2021/12/26 12:07:57;;;;;;;3.88;2.58;;;;;8.90;100418.00;;;;5109473;28;20210;-82
2021/12/26 12:10:37;;;;;;;3.13;1.92;;;;;8.90;100413.00;;;;5110081;28;20611;-82
2021/12/26 12:13:05;;;;;;;2.85;2.20;;;;;9.00;100413.00;;;;5119238;27;20205;-82
2021/12/26 12:15:43;;;;;;;4.72;2.33;;;;;9.00;100409.00;;;;5128625;27;20215;-81
2021/12/26 12:18:12;;;;;;;3.85;2.22;;;;;9.10;100401.00;;;;5129364;27;20196;-82
2021/12/26 12:20:41;;;;;;;3.88;2.42;;;;;9.10;100411.00;;;;5129513;27;20189;-82
2021/12/26 12:23:19;;;;;;;3.25;2.45;;;;;9.10;100408.00;;;;5130338;27;20197;-82
2021/12/26 12:25:52;;;;;;;3.53;2.22;;;;;9.20;100394.00;;;;5129402;27;20220;-82
2021/12/26 12:28:28;;;;;;;8.90;2.67;;;;;9.20;100391.00;;;;5129839;27;20215;-82
2021/12/26 12:30:58;;;;;;;4.72;2.85;;;;;9.30;100396.00;;;;5112228;28;20558;-82